Time;durP1;ratioP1;P1;durP2;ratioP2;P2;SDS_P1;SDS_P2;PMS_P1;PMS_P2;Temp;Humidity;BMP_temperature;BMP_pressure;BME280_temperature;BME280_humidity;BME280_pressure;Samples;Min_cycle;Max_cycle;Signal;HPM_P1;HPM_P2
2022/06/01 00:02:18;;;;;;;10.23;4.10;;;12.40;72.80;;;;;;5001112;28;20088;-76
2022/06/01 00:04:44;;;;;;;8.95;3.60;;;12.30;73.10;;;;;;5000105;28;20496;-75
2022/06/01 00:07:10;;;;;;;9.60;3.70;;;12.30;73.20;;;;;;4997537;28;20038;-75
2022/06/01 00:09:36;;;;;;;8.57;3.50;;;12.30;73.30;;;;;;5005380;28;20069;-75
2022/06/01 00:12:02;;;;;;;8.90;3.60;;;12.20;73.60;;;;;;5005978;28;20038;-74
2022/06/01 00:14:28;;;;;;;7.65;3.47;;;12.20;73.80;;;;;;5001922;28;20478;-76
2022/06/01 00:16:56;;;;;;;8.32;3.58;;;12.30;74.10;;;;;;5008863;28;20057;-75
2022/06/01 00:19:22;;;;;;;7.30;3.72;;;12.20;74.10;;;;;;5000041;28;20034;-75
2022/06/01 00:24:33;;;;;;;8.00;3.97;;;12.10;74.20;;;;;;5007283;28;20051;-75
2022/06/01 00:26:58;;;;;;;8.10;3.60;;;12.10;74.40;;;;;;5002941;28;20034;-75
2022/06/01 00:29:24;;;;;;;6.78;3.80;;;12.10;74.50;;;;;;5002335;28;20319;-75
2022/06/01 00:31:50;;;;;;;10.07;3.80;;;12.00;74.70;;;;;;5002009;28;20041;-75
2022/06/01 00:34:16;;;;;;;8.68;3.58;;;12.00;74.70;;;;;;4999288;28;20041;-74
2022/06/01 00:36:41;;;;;;;9.52;3.75;;;12.00;74.80;;;;;;4999410;28;20424;-74
2022/06/01 00:39:07;;;;;;;8.75;3.83;;;12.00;75.10;;;;;;4998940;28;20042;-74
2022/06/01 00:41:33;;;;;;;8.77;3.63;;;12.00;75.10;;;;;;5001082;28;20045;-74
2022/06/01 00:43:58;;;;;;;12.68;5.22;;;12.00;75.10;;;;;;4996981;28;20045;-75
2022/06/01 00:46:25;;;;;;;9.65;3.83;;;11.90;75.30;;;;;;5000674;28;20394;-74
2022/06/01 00:48:54;;;;;;;10.77;4.38;;;11.90;75.50;;;;;;5002606;28;20045;-74
2022/06/01 00:51:24;;;;;;;10.48;3.78;;;11.80;75.70;;;;;;5000907;28;20022;-75
2022/06/01 00:53:52;;;;;;;10.02;4.18;;;11.90;75.90;;;;;;4999287;28;20104;-74
2022/06/01 00:56:41;;;;;;;7.00;3.90;;;11.80;76.00;;;;;;4995430;28;20088;-75
2022/06/01 00:59:10;;;;;;;10.15;4.38;;;11.80;76.20;;;;;;5008758;28;20026;-74
2022/06/01 01:01:36;;;;;;;9.65;4.18;;;11.80;76.20;;;;;;4996272;28;20050;-75
2022/06/01 01:04:05;;;;;;;10.65;3.85;;;11.80;76.30;;;;;;5004195;28;20027;-74
2022/06/01 01:06:37;;;;;;;10.38;4.18;;;11.70;76.60;;;;;;4998355;28;20046;-74
2022/06/01 01:09:03;;;;;;;9.93;4.00;;;11.70;76.70;;;;;;4999053;28;20097;-74
2022/06/01 01:11:32;;;;;;;8.80;3.60;;;11.60;76.90;;;;;;5003289;28;20034;-74
2022/06/01 01:13:58;;;;;;;9.27;4.15;;;11.60;77.00;;;;;;5000000;28;20050;-74
2022/06/01 01:16:25;;;;;;;8.25;3.88;;;11.60;76.90;;;;;;5000848;28;20042;-74
2022/06/01 01:18:52;;;;;;;9.88;4.38;;;11.60;77.20;;;;;;4999323;28;20066;-74
2022/06/01 01:21:32;;;;;;;11.50;3.97;;;11.50;77.50;;;;;;5000848;28;20038;-74
2022/06/01 01:24:25;;;;;;;9.18;4.15;;;11.60;77.70;;;;;;5001626;28;20695;-74
2022/06/01 01:26:52;;;;;;;11.05;4.63;;;11.50;77.70;;;;;;4996380;28;20128;-76
2022/06/01 01:29:35;;;;;;;10.68;4.38;;;11.50;77.90;;;;;;4998499;28;20046;-75
2022/06/01 01:32:01;;;;;;;8.98;4.82;;;11.50;78.00;;;;;;4999261;28;20065;-74
2022/06/01 01:34:28;;;;;;;13.15;5.05;;;11.40;78.20;;;;;;4999432;28;20121;-73
2022/06/01 01:36:57;;;;;;;9.30;4.13;;;11.40;78.30;;;;;;4998785;28;20108;-74
2022/06/01 01:39:25;;;;;;;11.18;4.55;;;11.30;78.60;;;;;;5000709;28;20113;-74
2022/06/01 01:41:56;;;;;;;10.45;4.57;;;11.30;78.70;;;;;;5003262;28;20042;-76
2022/06/01 01:44:26;;;;;;;9.05;3.85;;;11.30;78.80;;;;;;5003683;28;20119;-75
2022/06/01 01:46:52;;;;;;;8.93;4.57;;;11.20;79.00;;;;;;5005136;28;20034;-74
2022/06/01 01:49:21;;;;;;;10.25;4.53;;;11.20;79.00;;;;;;5004726;28;20045;-74
2022/06/01 01:51:48;;;;;;;10.48;4.47;;;11.30;79.20;;;;;;5004503;28;20490;-76
2022/06/01 01:54:34;;;;;;;8.20;4.43;;;11.20;79.20;;;;;;5004839;28;20093;-77
2022/06/01 01:57:14;;;;;;;11.80;5.55;;;11.20;79.30;;;;;;5003628;28;20044;-76
2022/06/01 02:00:05;;;;;;;10.63;5.28;;;11.20;79.60;;;;;;5003785;28;20044;-74
2022/06/01 02:02:58;;;;;;;10.65;4.63;;;11.20;79.60;;;;;;5000667;28;20153;-73
2022/06/01 02:08:27;;;;;;;9.50;4.57;;;11.10;79.90;;;;;;5008001;28;20056;-74
2022/06/01 02:13:50;;;;;;;10.85;4.50;;;11.20;79.80;;;;;;5001329;28;20058;-74
2022/06/01 02:16:16;;;;;;;12.95;4.93;;;11.10;79.70;;;;;;5006750;28;20512;-73
2022/06/01 02:18:45;;;;;;;12.10;4.90;;;11.10;79.80;;;;;;5003944;28;20600;-74
2022/06/01 02:21:21;;;;;;;12.43;5.32;;;11.00;80.00;;;;;;5004663;28;20034;-75
2022/06/01 02:23:49;;;;;;;9.43;5.07;;;11.00;80.10;;;;;;5000597;28;20042;-74
2022/06/01 02:26:15;;;;;;;9.13;4.90;;;11.00;80.20;;;;;;5004400;28;20050;-75
2022/06/01 02:28:43;;;;;;;11.73;5.55;;;11.00;80.20;;;;;;5003025;28;20145;-75
2022/06/01 02:31:11;;;;;;;11.63;5.70;;;10.90;80.30;;;;;;5002715;28;20076;-75
2022/06/01 02:33:38;;;;;;;11.68;5.75;;;10.90;80.30;;;;;;5004850;28;20052;-75
2022/06/01 02:36:06;;;;;;;10.85;5.38;;;10.80;80.30;;;;;;5003558;28;20394;-75
2022/06/01 02:38:39;;;;;;;12.95;5.75;;;10.80;80.40;;;;;;5004528;28;20041;-75
2022/06/01 02:41:05;;;;;;;11.13;5.82;;;10.80;80.80;;;;;;5001733;28;20461;-74
2022/06/01 02:43:31;;;;;;;11.10;5.70;;;10.70;81.00;;;;;;5009628;28;20041;-74
2022/06/01 02:45:57;;;;;;;10.32;5.97;;;10.70;81.10;;;;;;5008121;28;20034;-77
2022/06/01 02:48:23;;;;;;;12.25;6.28;;;10.70;81.20;;;;;;4998471;28;20293;-75
2022/06/01 02:50:48;;;;;;;11.30;5.90;;;10.80;81.50;;;;;;4999041;28;20038;-75
2022/06/01 02:53:14;;;;;;;9.60;5.47;;;10.70;81.50;;;;;;5001001;28;20054;-75
2022/06/01 02:55:40;;;;;;;15.02;6.53;;;10.70;81.60;;;;;;5001449;28;20389;-75
2022/06/01 02:58:05;;;;;;;12.32;6.32;;;10.80;81.70;;;;;;4998307;28;20406;-74
2022/06/01 03:00:35;;;;;;;12.35;6.07;;;10.70;81.60;;;;;;5001370;28;20120;-76
2022/06/01 03:03:03;;;;;;;11.38;6.15;;;10.70;81.80;;;;;;5001372;28;20478;-75
2022/06/01 03:05:36;;;;;;;11.70;5.53;;;10.60;81.70;;;;;;5001729;28;20045;-75
2022/06/01 03:08:02;;;;;;;10.07;5.78;;;10.60;81.70;;;;;;5001491;28;20037;-75
2022/06/01 03:10:29;;;;;;;11.80;6.10;;;10.60;81.70;;;;;;4993357;28;20037;-75
2022/06/01 03:12:55;;;;;;;14.40;6.53;;;10.60;81.70;;;;;;4997910;28;20482;-75
2022/06/01 03:15:22;;;;;;;11.95;6.60;;;10.50;81.90;;;;;;4998344;28;20061;-75
2022/06/01 03:17:49;;;;;;;13.18;6.70;;;10.50;82.00;;;;;;4998241;28;20034;-75
2022/06/01 03:20:18;;;;;;;12.05;6.65;;;10.50;82.20;;;;;;4995662;28;20065;-75
2022/06/01 03:22:45;;;;;;;14.43;6.60;;;10.40;82.20;;;;;;5003178;28;20096;-75
2022/06/01 03:25:17;;;;;;;13.93;6.28;;;10.40;82.30;;;;;;5004586;28;20076;-74
2022/06/01 03:27:43;;;;;;;13.98;7.18;;;10.40;82.40;;;;;;4999772;28;20037;-75
2022/06/01 03:30:12;;;;;;;13.05;7.07;;;10.50;82.40;;;;;;4997967;28;20049;-74
2022/06/01 03:32:38;;;;;;;11.57;6.80;;;10.40;82.40;;;;;;5001041;28;20052;-75
2022/06/01 03:35:05;;;;;;;11.93;7.15;;;10.40;82.30;;;;;;4995922;28;20133;-74
2022/06/01 03:37:31;;;;;;;13.35;7.03;;;10.40;82.20;;;;;;4989969;28;20041;-76
2022/06/01 03:39:57;;;;;;;12.43;6.43;;;10.40;82.20;;;;;;4998376;28;20033;-75
2022/06/01 03:42:23;;;;;;;17.38;8.35;;;10.30;82.10;;;;;;4988856;28;20509;-76
2022/06/01 03:47:33;;;;;;;12.30;6.57;;;10.30;81.90;;;;;;4992595;28;20563;-74
2022/06/01 03:49:58;;;;;;;13.15;6.72;;;10.30;82.00;;;;;;4989760;28;20038;-75
2022/06/01 03:52:25;;;;;;;13.27;6.90;;;10.20;81.90;;;;;;4990715;28;20113;-76
2022/06/01 03:54:51;;;;;;;14.52;7.63;;;10.20;81.90;;;;;;4990984;28;20053;-75
2022/06/01 03:57:17;;;;;;;14.32;7.32;;;10.20;81.90;;;;;;4992587;28;20045;-77
2022/06/01 03:59:43;;;;;;;14.43;7.40;;;10.20;81.90;;;;;;4997753;28;20102;-74
2022/06/01 04:02:10;;;;;;;12.18;7.22;;;10.20;81.80;;;;;;4999635;28;20041;-75
2022/06/01 04:04:37;;;;;;;18.25;8.00;;;10.20;82.00;;;;;;5004476;28;20529;-76
2022/06/01 04:07:03;;;;;;;16.75;7.78;;;10.20;82.00;;;;;;5002074;28;20065;-76
2022/06/01 04:09:29;;;;;;;15.57;7.55;;;10.30;82.00;;;;;;5002697;28;20149;-73
2022/06/01 04:11:55;;;;;;;13.38;7.13;;;10.40;81.80;;;;;;5001542;28;20061;-74
2022/06/01 04:14:21;;;;;;;14.02;7.30;;;10.40;81.80;;;;;;5004163;28;20662;-75
2022/06/01 04:16:48;;;;;;;15.05;8.02;;;10.50;81.70;;;;;;4999364;28;20037;-75
2022/06/01 04:19:14;;;;;;;12.40;7.47;;;10.60;81.50;;;;;;4995982;28;20042;-74
2022/06/01 04:21:43;;;;;;;14.27;6.97;;;10.60;81.50;;;;;;5003156;28;20481;-75
2022/06/01 04:24:14;;;;;;;12.38;7.00;;;10.80;81.40;;;;;;4991720;28;20377;-73
2022/06/01 04:26:40;;;;;;;11.88;6.90;;;10.90;81.30;;;;;;4990716;28;20034;-74
2022/06/01 04:29:06;;;;;;;14.77;6.95;;;11.10;81.10;;;;;;4991126;28;20474;-76
2022/06/01 04:31:32;;;;;;;13.57;7.38;;;11.20;80.90;;;;;;4995663;28;20044;-75
2022/06/01 04:33:57;;;;;;;15.23;7.50;;;11.40;80.90;;;;;;4998345;28;20085;-74
2022/06/01 04:36:24;;;;;;;13.65;7.72;;;11.50;80.10;;;;;;4993025;28;20049;-75
2022/06/01 04:38:50;;;;;;;11.98;7.05;;;11.60;79.40;;;;;;4990048;28;20027;-75
2022/06/01 04:41:15;;;;;;;13.43;7.63;;;11.60;79.70;;;;;;4994425;28;20077;-75
2022/06/01 04:43:41;;;;;;;14.30;7.68;;;11.70;79.40;;;;;;4992240;28;20061;-75
2022/06/01 04:46:07;;;;;;;13.07;7.18;;;11.80;79.50;;;;;;4992467;28;20518;-76
2022/06/01 04:48:32;;;;;;;13.57;7.82;;;11.90;79.30;;;;;;4990521;28;20037;-74
2022/06/01 04:50:58;;;;;;;15.20;8.00;;;12.00;79.10;;;;;;4989340;28;20033;-75
2022/06/01 04:53:24;;;;;;;12.57;8.05;;;12.10;79.10;;;;;;5000267;28;20042;-74
2022/06/01 04:55:50;;;;;;;15.35;8.25;;;12.10;79.10;;;;;;4995921;28;20606;-75
2022/06/01 04:58:16;;;;;;;14.93;8.63;;;12.20;78.80;;;;;;4993428;28;20058;-72
2022/06/01 05:00:44;;;;;;;18.55;8.80;;;12.20;78.60;;;;;;4992988;28;20126;-74
2022/06/01 05:03:10;;;;;;;16.23;8.90;;;12.30;78.90;;;;;;4996470;28;20038;-74
2022/06/01 05:05:39;;;;;;;14.32;9.57;;;12.20;78.50;;;;;;4988148;28;20476;-72
2022/06/01 05:08:06;;;;;;;15.77;8.60;;;12.30;78.90;;;;;;4984895;28;20049;-76
2022/06/01 05:10:33;;;;;;;16.20;9.68;;;12.30;79.20;;;;;;4990068;28;20451;-74
2022/06/01 05:12:59;;;;;;;19.05;9.68;;;12.40;79.00;;;;;;4986809;28;20445;-76
2022/06/01 05:15:24;;;;;;;16.88;9.02;;;12.40;79.00;;;;;;4991190;28;20034;-76
2022/06/01 05:17:50;;;;;;;16.13;8.90;;;12.40;78.60;;;;;;4997972;28;20030;-74
2022/06/01 05:20:16;;;;;;;16.60;9.15;;;12.40;78.90;;;;;;4990085;28;20537;-73
2022/06/01 05:22:42;;;;;;;18.23;9.38;;;12.50;79.20;;;;;;4988182;28;20042;-75
2022/06/01 05:25:08;;;;;;;15.60;9.00;;;12.40;79.30;;;;;;4991276;28;20061;-75
2022/06/01 05:27:35;;;;;;;16.48;8.88;;;12.50;79.40;;;;;;4996007;28;20493;-75
2022/06/01 05:30:01;;;;;;;16.35;9.55;;;12.50;79.30;;;;;;4996262;28;20038;-76
2022/06/01 05:32:27;;;;;;;17.00;9.30;;;12.60;79.30;;;;;;4993034;28;20045;-74
2022/06/01 05:34:52;;;;;;;14.85;9.88;;;12.60;79.40;;;;;;4994021;28;20104;-73
2022/06/01 05:37:18;;;;;;;17.80;9.50;;;12.60;79.60;;;;;;4996861;28;20960;-73
2022/06/01 05:39:44;;;;;;;16.55;8.60;;;12.80;79.10;;;;;;4997352;28;20530;-75
2022/06/01 05:42:11;;;;;;;14.27;8.75;;;12.90;78.70;;;;;;5001485;28;20429;-77
2022/06/01 05:44:37;;;;;;;20.35;9.88;;;13.20;78.70;;;;;;5001604;28;20034;-75
2022/06/01 05:47:03;;;;;;;16.70;8.80;;;13.70;77.90;;;;;;5004045;28;20398;-75
2022/06/01 05:49:30;;;;;;;19.73;9.65;;;14.30;76.00;;;;;;5000004;28;20034;-72
2022/06/01 05:51:56;;;;;;;14.68;8.93;;;14.70;73.70;;;;;;5010020;28;20444;-73
2022/06/01 05:54:22;;;;;;;16.83;8.85;;;15.00;72.60;;;;;;5002985;28;20541;-73
2022/06/01 05:56:47;;;;;;;13.63;7.70;;;15.00;72.20;;;;;;4999774;28;20037;-72
2022/06/01 05:59:14;;;;;;;16.27;9.05;;;15.00;72.90;;;;;;5001300;28;20106;-74
2022/06/01 06:01:40;;;;;;;22.65;8.88;;;15.00;73.00;;;;;;5003558;28;20076;-72
2022/06/01 06:04:06;;;;;;;21.67;8.95;;;15.10;72.60;;;;;;5001561;28;20046;-72
2022/06/01 06:06:32;;;;;;;16.88;8.38;;;14.80;73.00;;;;;;5006380;28;20030;-73
2022/06/01 06:09:04;;;;;;;17.75;8.32;;;14.90;73.90;;;;;;5002109;28;20273;-73
2022/06/01 06:11:33;;;;;;;15.57;8.85;;;15.00;72.70;;;;;;5003586;28;20141;-73
2022/06/01 06:13:59;;;;;;;15.93;8.70;;;15.10;73.30;;;;;;5001620;28;20136;-72
2022/06/01 06:16:26;;;;;;;16.27;8.95;;;15.30;72.60;;;;;;4995989;28;20551;-73
2022/06/01 06:18:56;;;;;;;14.45;8.20;;;15.60;72.10;;;;;;5001651;28;20049;-73
2022/06/01 06:21:22;;;;;;;16.02;8.23;;;15.80;71.50;;;;;;4995684;28;20046;-74
2022/06/01 06:23:48;;;;;;;14.32;8.15;;;15.90;70.00;;;;;;4994119;28;20453;-72
2022/06/01 06:26:14;;;;;;;16.77;8.20;;;15.70;70.20;;;;;;4999021;28;20049;-73
2022/06/01 06:28:40;;;;;;;12.98;8.15;;;15.80;70.80;;;;;;4997475;28;20049;-72
2022/06/01 06:31:06;;;;;;;16.08;8.75;;;15.90;70.40;;;;;;4992386;28;20042;-72
2022/06/01 06:33:31;;;;;;;12.27;7.93;;;16.00;70.30;;;;;;5005215;28;20044;-71
2022/06/01 06:36:00;;;;;;;16.15;8.65;;;16.10;70.20;;;;;;5005790;28;20281;-72
2022/06/01 06:38:29;;;;;;;12.93;7.70;;;16.00;70.20;;;;;;5005060;28;20029;-73
2022/06/01 06:40:56;;;;;;;18.35;9.57;;;16.10;70.20;;;;;;5010699;28;20038;-74
2022/06/01 06:43:24;;;;;;;13.32;7.72;;;16.20;69.20;;;;;;5002518;28;20061;-71
2022/06/01 06:45:51;;;;;;;13.90;8.25;;;16.40;69.20;;;;;;5004791;28;20116;-71
2022/06/01 06:48:17;;;;;;;13.85;8.77;;;16.50;68.60;;;;;;5011342;28;20054;-71
2022/06/01 06:50:43;;;;;;;15.70;8.60;;;16.50;68.60;;;;;;5005250;28;20052;-72
2022/06/01 06:53:09;;;;;;;14.85;8.38;;;16.60;67.80;;;;;;5000356;28;20355;-72
2022/06/01 06:55:35;;;;;;;16.77;9.30;;;16.70;67.90;;;;;;4996130;28;20057;-70
2022/06/01 06:58:01;;;;;;;14.65;8.38;;;16.80;67.20;;;;;;4997189;28;20074;-70
2022/06/01 07:00:26;;;;;;;13.60;8.35;;;16.90;67.90;;;;;;5001821;28;20076;-73
2022/06/01 07:02:52;;;;;;;15.30;8.98;;;17.10;66.30;;;;;;4999055;28;20480;-74
2022/06/01 07:06:08;;;;;;;15.15;9.02;;;17.10;65.60;;;;;;4998364;28;20048;-72
2022/06/01 07:08:05;;;;;;;17.00;8.50;;;16.90;66.70;;;;;;4997242;28;20061;-71
2022/06/01 07:10:31;;;;;;;14.40;8.57;;;16.80;65.90;;;;;;5002789;28;20521;-73
2022/06/01 07:12:56;;;;;;;13.50;8.02;;;16.80;66.20;;;;;;4994724;28;20153;-74
2022/06/01 07:15:22;;;;;;;14.15;8.60;;;17.10;66.10;;;;;;5002083;28;20123;-73
2022/06/01 07:17:48;;;;;;;13.18;8.23;;;17.20;65.80;;;;;;4994355;28;20438;-72
2022/06/01 07:20:13;;;;;;;12.00;8.18;;;17.30;66.10;;;;;;4998618;28;20463;-74
2022/06/01 07:22:39;;;;;;;13.20;8.07;;;17.20;65.90;;;;;;4997569;28;20042;-75
2022/06/01 07:25:05;;;;;;;15.48;9.00;;;17.30;66.00;;;;;;4992390;28;20141;-70
2022/06/01 07:27:30;;;;;;;14.55;9.35;;;17.30;63.90;;;;;;4997170;28;20029;-72
2022/06/01 07:29:56;;;;;;;12.95;8.60;;;17.40;64.20;;;;;;5001900;28;20052;-72
2022/06/01 07:32:21;;;;;;;14.43;9.27;;;17.30;63.90;;;;;;4997952;28;20058;-72
2022/06/01 07:34:47;;;;;;;14.40;8.77;;;17.00;65.30;;;;;;5000274;28;20046;-75
2022/06/01 07:45:26;;;;;;;12.55;8.30;;;17.30;63.60;;;;;;5007065;28;20080;-71
2022/06/01 07:47:51;;;;;;;11.82;8.27;;;17.10;62.30;;;;;;5000975;28;20409;-74
2022/06/01 07:50:17;;;;;;;9.75;7.68;;;17.20;62.70;;;;;;4998808;28;20030;-71
2022/06/01 07:52:43;;;;;;;12.80;8.45;;;17.30;61.60;;;;;;4995896;28;20514;-72
2022/06/01 07:55:10;;;;;;;12.43;8.57;;;17.30;61.40;;;;;;4993938;28;20096;-70
2022/06/01 07:57:35;;;;;;;11.98;9.52;;;17.30;61.60;;;;;;5011180;28;20626;-71
2022/06/01 08:00:01;;;;;;;12.05;7.80;;;17.30;61.80;;;;;;4991083;28;20030;-75
2022/06/01 08:02:27;;;;;;;12.80;7.70;;;17.10;63.00;;;;;;5004450;28;20455;-74
2022/06/01 08:04:53;;;;;;;11.02;6.72;;;17.00;62.40;;;;;;5002958;28;20051;-71
2022/06/01 08:07:18;;;;;;;16.02;6.75;;;16.90;62.30;;;;;;5004152;28;20038;-72
2022/06/01 08:09:44;;;;;;;9.13;7.20;;;16.80;62.70;;;;;;5007894;28;20481;-72
2022/06/01 08:14:54;;;;;;;9.20;5.88;;;17.00;61.70;;;;;;4998304;28;20480;-73
2022/06/01 08:17:20;;;;;;;8.70;5.70;;;16.90;60.70;;;;;;4999414;28;20494;-72
2022/06/01 08:19:46;;;;;;;10.10;6.07;;;16.60;61.00;;;;;;5001849;28;20409;-72
2022/06/01 08:22:12;;;;;;;12.90;6.60;;;16.70;61.40;;;;;;4999291;28;21235;-69
2022/06/01 08:24:38;;;;;;;10.98;6.20;;;16.50;61.20;;;;;;5003912;28;20490;-72
2022/06/01 08:27:04;;;;;;;9.77;6.30;;;16.60;61.10;;;;;;4995273;28;20069;-71
2022/06/01 08:29:29;;;;;;;10.43;6.43;;;16.60;61.60;;;;;;5001724;28;20037;-73
2022/06/01 08:31:55;;;;;;;10.88;6.60;;;16.60;61.40;;;;;;4994455;28;20121;-72
2022/06/01 08:34:21;;;;;;;11.07;6.00;;;16.60;61.90;;;;;;4991381;28;20173;-72
2022/06/01 08:36:47;;;;;;;9.25;5.80;;;16.80;61.40;;;;;;5003170;28;20030;-71
2022/06/01 08:39:13;;;;;;;9.82;5.35;;;17.00;59.90;;;;;;5008572;28;20367;-71
2022/06/01 08:41:39;;;;;;;7.45;5.25;;;17.10;58.70;;;;;;5006840;28;20638;-70
2022/06/01 08:44:28;;;;;;;10.73;6.05;;;17.30;58.70;;;;;;5011859;28;20127;-70
2022/06/01 08:46:59;;;;;;;10.00;5.68;;;17.60;58.70;;;;;;4998289;28;20037;-70
2022/06/01 08:49:28;;;;;;;8.73;5.50;;;17.80;58.40;;;;;;4996574;28;20548;-70
2022/06/01 08:51:55;;;;;;;11.48;5.82;;;18.10;57.40;;;;;;5002385;28;20041;-69
2022/06/01 08:54:22;;;;;;;8.95;5.53;;;18.10;58.00;;;;;;4992024;28;20077;-72
2022/06/01 08:56:54;;;;;;;9.55;5.60;;;18.10;58.30;;;;;;4987969;28;20150;-70
2022/06/01 08:59:25;;;;;;;10.32;5.10;;;18.40;57.40;;;;;;4989684;28;20457;-70
2022/06/01 09:02:22;;;;;;;7.65;4.90;;;18.60;55.90;;;;;;4997049;28;20058;-70
2022/06/01 09:04:53;;;;;;;9.52;4.90;;;18.60;54.40;;;;;;4997824;28;20048;-70
2022/06/01 09:07:23;;;;;;;7.45;4.72;;;18.60;55.70;;;;;;4997793;28;20071;-70
2022/06/01 09:09:57;;;;;;;8.90;5.45;;;18.80;54.10;;;;;;4999526;28;20061;-71
2022/06/01 09:12:24;;;;;;;10.05;4.72;;;18.40;52.90;;;;;;4999977;28;20478;-70
2022/06/01 09:14:56;;;;;;;8.38;5.00;;;18.70;52.10;;;;;;4998519;28;20065;-71
2022/06/01 09:17:21;;;;;;;8.18;5.10;;;19.20;52.20;;;;;;5000173;28;20049;-73
2022/06/01 09:22:39;;;;;;;10.15;5.20;;;19.00;50.90;;;;;;5001587;28;20296;-71
2022/06/01 09:25:12;;;;;;;8.70;5.28;;;19.40;51.70;;;;;;5005725;28;20065;-74
2022/06/01 09:27:44;;;;;;;8.90;4.93;;;19.80;50.50;;;;;;4986243;28;20031;-71
2022/06/01 09:30:19;;;;;;;7.85;5.43;;;20.10;48.70;;;;;;5000151;28;20117;-73
2022/06/01 09:32:59;;;;;;;9.25;5.40;;;19.50;49.80;;;;;;4994331;28;20030;-73
2022/06/01 09:35:29;;;;;;;7.72;5.28;;;19.40;50.50;;;;;;4999658;28;20465;-71
2022/06/01 09:37:55;;;;;;;9.43;5.32;;;19.30;50.10;;;;;;4999717;28;20114;-72
2022/06/01 09:40:28;;;;;;;10.43;5.93;;;19.10;51.40;;;;;;4997925;28;20148;-72
2022/06/01 09:42:55;;;;;;;9.65;5.75;;;19.40;52.20;;;;;;4998707;28;20030;-72
2022/06/01 09:45:25;;;;;;;7.90;5.38;;;19.90;50.10;;;;;;5006684;28;20042;-72
2022/06/01 09:47:53;;;;;;;10.00;6.45;;;20.50;47.40;;;;;;5000041;28;20044;-71
2022/06/01 09:50:31;;;;;;;11.23;6.28;;;20.20;47.50;;;;;;4990233;28;20121;-73
2022/06/01 09:53:00;;;;;;;8.95;6.10;;;19.60;49.40;;;;;;4989855;28;20454;-74
2022/06/01 09:55:30;;;;;;;7.78;6.00;;;19.60;50.20;;;;;;4992026;28;20044;-73
2022/06/01 09:58:10;;;;;;;7.88;5.65;;;18.80;49.90;;;;;;5003422;28;20033;-71
2022/06/01 10:06:30;;;;;;;9.02;6.72;;;18.20;51.60;;;;;;5015437;28;20453;-71
2022/06/01 10:09:08;;;;;;;8.93;6.38;;;17.90;53.30;;;;;;5002724;28;20064;-75
2022/06/01 10:11:42;;;;;;;10.48;7.57;;;18.10;53.80;;;;;;5003625;28;20366;-74
2022/06/01 10:14:14;;;;;;;9.87;8.37;;;18.10;53.20;;;;;;5014955;28;20052;-72
2022/06/01 10:16:46;;;;;;;10.93;8.85;;;17.80;54.40;;;;;;5011763;28;20195;-72
2022/06/01 10:19:16;;;;;;;12.70;9.15;;;18.00;53.70;;;;;;4991251;28;20445;-72
2022/06/01 10:21:56;;;;;;;11.77;10.57;;;18.00;54.20;;;;;;4999261;28;20033;-74
2022/06/01 10:24:47;;;;;;;14.90;11.18;;;17.40;56.00;;;;;;4999725;28;20034;-74
2022/06/01 10:27:16;;;;;;;14.05;11.98;;;16.60;60.90;;;;;;4982719;28;20035;-73
2022/06/01 10:29:45;;;;;;;13.23;11.93;;;16.40;62.80;;;;;;5003126;28;20076;-73
2022/06/01 10:32:42;;;;;;;12.27;11.02;;;16.10;62.70;;;;;;4994924;28;20034;-74
2022/06/01 10:35:16;;;;;;;11.48;9.90;;;16.20;62.30;;;;;;4994860;28;20055;-72
2022/06/01 10:38:08;;;;;;;10.18;8.00;;;15.90;61.30;;;;;;5010569;28;20030;-72
2022/06/01 10:41:16;;;;;;;8.88;7.55;;;15.90;60.30;;;;;;4987895;28;20038;-72
2022/06/01 10:43:57;;;;;;;8.93;7.70;;;16.10;60.40;;;;;;5005250;28;20030;-72
2022/06/01 10:46:41;;;;;;;9.40;7.07;;;16.20;60.40;;;;;;5007476;28;20453;-73
2022/06/01 10:49:22;;;;;;;7.22;6.07;;;16.40;59.30;;;;;;5008392;28;20038;-73
2022/06/01 10:52:16;;;;;;;6.90;5.57;;;16.90;58.00;;;;;;5003752;28;20101;-74
2022/06/01 10:55:05;;;;;;;6.57;5.10;;;17.20;55.20;;;;;;5002077;28;21177;-70
2022/06/01 10:57:32;;;;;;;7.22;5.00;;;17.40;53.60;;;;;;4992636;28;20026;-73
2022/06/01 10:59:58;;;;;;;7.30;5.30;;;17.60;53.00;;;;;;5002962;28;20049;-74
2022/06/01 11:02:35;;;;;;;7.35;4.60;;;17.60;53.20;;;;;;5002413;28;20122;-71
2022/06/01 11:05:16;;;;;;;7.15;5.20;;;17.70;52.00;;;;;;5003449;28;20022;-74
2022/06/01 11:08:14;;;;;;;9.18;5.30;;;17.90;50.60;;;;;;5000886;28;20505;-72
2022/06/01 11:10:42;;;;;;;7.90;5.75;;;17.90;50.70;;;;;;5002412;28;20030;-73
2022/06/01 11:13:31;;;;;;;9.50;5.47;;;17.80;51.40;;;;;;4997549;28;20044;-74
2022/06/01 11:16:23;;;;;;;9.00;5.97;;;18.30;52.40;;;;;;5000188;28;20076;-73
2022/06/01 11:19:04;;;;;;;8.38;6.00;;;18.60;51.70;;;;;;5002731;28;20026;-73
2022/06/01 11:21:51;;;;;;;7.63;5.57;;;18.80;49.00;;;;;;4998461;28;20116;-72
2022/06/01 11:24:29;;;;;;;10.57;6.88;;;18.70;49.10;;;;;;4990493;28;20505;-71
2022/06/01 11:27:04;;;;;;;9.40;6.38;;;18.90;50.10;;;;;;4994891;28;20041;-69
2022/06/01 11:29:44;;;;;;;6.60;3.67;;;18.90;49.80;;;;;;4999131;28;20563;-72
2022/06/01 11:32:18;;;;;;;7.07;3.60;;;19.00;46.60;;;;;;5001923;28;20442;-75
2022/06/01 11:35:06;;;;;;;7.70;3.80;;;19.30;47.20;;;;;;5004589;28;20512;-71
2022/06/01 11:37:55;;;;;;;4.55;2.03;;;19.30;46.10;;;;;;4997253;28;20022;-70
2022/06/01 11:40:39;;;;;;;6.00;2.72;;;19.40;45.20;;;;;;4992343;28;20675;-72
2022/06/01 11:43:09;;;;;;;6.72;3.10;;;18.80;46.70;;;;;;5003469;28;20029;-72
2022/06/01 11:45:59;;;;;;;7.13;3.55;;;18.90;48.30;;;;;;5009751;28;20037;-72
2022/06/01 11:48:31;;;;;;;6.10;3.20;;;19.10;47.10;;;;;;5003352;28;20121;-74
2022/06/01 11:51:11;;;;;;;7.03;2.92;;;19.60;47.50;;;;;;5002684;28;20041;-75
2022/06/01 11:54:06;;;;;;;6.85;3.00;;;19.70;48.40;;;;;;4996164;28;20038;-73
2022/06/01 11:56:52;;;;;;;4.82;3.10;;;20.10;47.10;;;;;;4994821;28;20478;-72
2022/06/01 11:59:26;;;;;;;6.25;3.00;;;19.60;45.60;;;;;;4986962;28;20026;-72
2022/06/01 12:02:16;;;;;;;6.03;3.00;;;19.70;45.80;;;;;;4992593;28;20038;-76
2022/06/01 12:04:54;;;;;;;6.47;2.47;;;19.90;46.50;;;;;;4995917;28;20030;-72
2022/06/01 12:07:32;;;;;;;5.43;2.22;;;19.80;44.50;;;;;;4994603;28;20041;-73
2022/06/01 12:10:05;;;;;;;4.70;2.55;;;19.80;44.40;;;;;;4994047;28;20061;-73
2022/06/01 12:12:37;;;;;;;5.97;2.70;;;19.90;45.60;;;;;;4997707;28;20033;-74
2022/06/01 12:15:29;;;;;;;5.70;2.70;;;20.00;44.30;;;;;;4997436;28;20610;-74
2022/06/01 12:18:18;;;;;;;5.90;2.78;;;19.50;45.20;;;;;;4991023;28;20033;-76
2022/06/01 12:20:51;;;;;;;7.10;2.60;;;19.30;46.30;;;;;;4994809;28;20037;-74
2022/06/01 12:28:57;;;;;;;4.40;2.10;;;19.10;47.00;;;;;;4990241;28;20072;-74
2022/06/01 12:31:30;;;;;;;3.28;1.92;;;19.10;47.10;;;;;;4994254;28;20037;-74
2022/06/01 12:34:16;;;;;;;3.92;1.85;;;19.40;44.70;;;;;;4996315;28;20038;-77
2022/06/01 12:37:08;;;;;;;5.85;2.40;;;19.50;46.10;;;;;;5009556;28;20390;-74
2022/06/01 12:39:40;;;;;;;4.53;2.10;;;19.70;45.90;;;;;;4998914;28;20777;-73
2022/06/01 12:42:18;;;;;;;4.32;1.98;;;20.00;44.40;;;;;;5001084;28;20443;-74
2022/06/01 12:44:47;;;;;;;5.20;2.08;;;20.40;44.20;;;;;;5001146;28;20034;-73
2022/06/01 12:47:29;;;;;;;5.93;2.20;;;20.40;44.40;;;;;;4997072;28;20041;-74
2022/06/01 12:49:55;;;;;;;4.07;1.98;;;20.00;44.20;;;;;;4998112;28;20056;-70
2022/06/01 12:52:26;;;;;;;3.63;1.88;;;19.80;44.70;;;;;;4989165;28;21906;-71
2022/06/01 12:55:00;;;;;;;5.05;2.08;;;19.70;44.20;;;;;;4993041;28;20108;-71
2022/06/01 12:57:37;;;;;;;3.13;1.45;;;19.80;44.90;;;;;;4999485;28;20547;-71
2022/06/01 13:00:08;;;;;;;2.78;1.30;;;20.00;45.30;;;;;;4997675;28;20458;-70
2022/06/01 13:02:36;;;;;;;6.53;1.90;;;20.30;45.20;;;;;;4997356;28;20045;-70
2022/06/01 13:05:05;;;;;;;3.42;2.05;;;20.30;43.60;;;;;;4994313;28;20049;-73
2022/06/01 13:07:35;;;;;;;3.92;1.60;;;19.90;43.40;;;;;;4991038;28;20560;-70
2022/06/01 13:10:22;;;;;;;3.50;1.67;;;19.90;44.60;;;;;;5000165;28;20034;-70
2022/06/01 13:12:48;;;;;;;4.50;1.80;;;19.70;44.30;;;;;;4998408;28;20539;-71
2022/06/01 13:15:26;;;;;;;3.92;1.90;;;19.60;44.30;;;;;;5001988;28;20569;-73
2022/06/01 13:17:53;;;;;;;4.25;2.00;;;19.40;45.20;;;;;;4993386;28;20490;-71
2022/06/01 13:20:24;;;;;;;5.93;2.10;;;19.30;44.80;;;;;;5001600;28;20125;-71
2022/06/01 13:22:52;;;;;;;5.05;2.10;;;19.40;45.20;;;;;;4988888;28;20039;-71
2022/06/01 13:25:28;;;;;;;3.85;2.13;;;19.50;44.20;;;;;;4992546;28;20062;-74
2022/06/01 13:27:54;;;;;;;5.47;1.88;;;19.60;44.60;;;;;;4991992;28;20428;-71
2022/06/01 13:30:20;;;;;;;2.72;1.80;;;19.60;44.30;;;;;;4997189;28;20497;-71
2022/06/01 13:32:50;;;;;;;4.47;1.80;;;19.30;43.10;;;;;;4993162;28;20042;-71
2022/06/01 13:35:33;;;;;;;4.07;1.58;;;19.40;43.30;;;;;;4997212;28;20038;-72